Time;durP1;ratioP1;P1;durP2;ratioP2;P2;SDS_P1;SDS_P2;PMS_P1;PMS_P2;Temp;Humidity;BMP_temperature;BMP_pressure;BME280_temperature;BME280_humidity;BME280_pressure;Samples;Min_cycle;Max_cycle;Signal;HPM_P1;HPM_P2
2023/08/15 00:02:17;;;;;;;4.95;3.13;;;18.90;99.90;;;;;;5066687;28;20033;-78
2023/08/15 00:04:43;;;;;;;8.05;3.20;;;18.90;99.90;;;;;;5068992;28;20031;-78
2023/08/15 00:07:08;;;;;;;9.20;3.47;;;18.90;99.90;;;;;;5076591;28;20077;-78
2023/08/15 00:09:34;;;;;;;5.57;3.15;;;18.80;99.90;;;;;;5065387;28;20469;-78
2023/08/15 00:11:59;;;;;;;10.25;3.90;;;18.80;99.90;;;;;;5072765;28;20043;-78
2023/08/15 00:14:26;;;;;;;7.15;3.85;;;18.80;99.90;;;;;;5051807;28;20089;-78
2023/08/15 00:16:52;;;;;;;7.90;3.60;;;18.70;99.90;;;;;;5065030;28;20506;-78
2023/08/15 00:19:17;;;;;;;7.03;3.80;;;18.70;99.90;;;;;;5069470;28;20057;-78
2023/08/15 00:21:43;;;;;;;6.18;3.65;;;18.60;99.90;;;;;;5079938;28;20032;-78
2023/08/15 00:24:08;;;;;;;7.85;3.60;;;18.60;99.90;;;;;;5064783;28;20491;-78
2023/08/15 00:26:34;;;;;;;5.75;3.60;;;18.60;99.90;;;;;;5074599;28;20042;-78
2023/08/15 00:28:59;;;;;;;7.55;4.30;;;18.70;99.90;;;;;;5065057;28;20127;-78
2023/08/15 00:31:25;;;;;;;6.25;3.85;;;18.70;99.90;;;;;;5075443;28;20035;-78
2023/08/15 00:33:51;;;;;;;7.03;3.97;;;18.70;99.90;;;;;;5065498;28;20036;-78
2023/08/15 00:36:17;;;;;;;7.32;3.90;;;18.70;99.90;;;;;;5071093;28;20086;-78
2023/08/15 00:38:43;;;;;;;8.23;4.00;;;18.70;99.90;;;;;;5084205;28;20052;-77
2023/08/15 00:41:09;;;;;;;6.53;4.28;;;18.70;99.90;;;;;;5066681;28;20402;-77
2023/08/15 00:43:35;;;;;;;9.50;4.40;;;18.70;99.90;;;;;;5067155;28;20377;-78
2023/08/15 00:46:03;;;;;;;7.70;4.10;;;18.70;99.90;;;;;;5071335;28;20558;-78
2023/08/15 00:48:30;;;;;;;6.70;4.60;;;18.80;99.90;;;;;;5067621;28;20080;-78
2023/08/15 00:50:56;;;;;;;7.65;5.05;;;18.80;99.90;;;;;;5059519;28;20028;-77
2023/08/15 00:53:22;;;;;;;7.13;4.18;;;18.80;99.90;;;;;;5074809;28;20469;-77
2023/08/15 00:55:49;;;;;;;8.88;5.15;;;18.80;99.90;;;;;;5072965;28;20384;-78
2023/08/15 00:58:15;;;;;;;11.98;5.65;;;18.70;99.90;;;;;;5070013;28;20040;-78
2023/08/15 01:00:42;;;;;;;8.07;4.82;;;18.80;99.90;;;;;;5066359;28;20047;-78
2023/08/15 01:03:08;;;;;;;8.75;5.68;;;18.80;99.90;;;;;;5064715;28;20043;-78
2023/08/15 01:05:34;;;;;;;8.13;4.90;;;18.80;99.90;;;;;;5069718;28;20036;-78
2023/08/15 01:08:00;;;;;;;8.82;5.25;;;18.70;99.90;;;;;;5067527;28;20040;-77
2023/08/15 01:10:26;;;;;;;10.95;5.90;;;18.80;99.90;;;;;;5077885;28;20081;-78
2023/08/15 01:13:10;;;;;;;10.40;5.18;;;18.80;99.90;;;;;;5102689;28;20120;-78
2023/08/15 01:15:41;;;;;;;7.97;5.53;;;18.80;99.90;;;;;;5065200;28;20044;-78
2023/08/15 01:18:22;;;;;;;10.00;5.78;;;18.80;99.90;;;;;;5071516;28;20052;-78
2023/08/15 01:20:50;;;;;;;7.78;4.88;;;18.80;99.90;;;;;;5069839;28;20363;-77
2023/08/15 01:23:17;;;;;;;9.02;5.50;;;18.80;99.90;;;;;;5070314;28;20060;-78
2023/08/15 01:25:42;;;;;;;8.77;5.38;;;18.80;99.90;;;;;;5072315;28;20036;-78
2023/08/15 01:28:12;;;;;;;9.23;5.22;;;18.80;99.90;;;;;;5071790;28;20039;-78
2023/08/15 01:30:43;;;;;;;8.30;5.15;;;18.80;99.90;;;;;;5070398;28;20039;-78
2023/08/15 01:33:27;;;;;;;9.52;4.95;;;18.80;99.90;;;;;;5062788;28;20059;-78
2023/08/15 01:36:00;;;;;;;8.70;5.00;;;18.80;99.90;;;;;;5072018;28;20134;-78
2023/08/15 01:38:51;;;;;;;9.23;5.72;;;18.70;99.90;;;;;;5065274;28;20453;-79
2023/08/15 01:41:20;;;;;;;7.78;5.32;;;18.70;99.90;;;;;;5068321;28;20044;-78
2023/08/15 01:43:47;;;;;;;7.80;5.18;;;18.70;99.90;;;;;;5064071;28;20085;-78
2023/08/15 01:46:13;;;;;;;6.55;5.20;;;18.60;99.90;;;;;;5066845;28;20395;-78
2023/08/15 01:48:41;;;;;;;7.60;5.47;;;18.60;99.90;;;;;;5061910;28;20040;-78
2023/08/15 01:51:07;;;;;;;8.80;5.15;;;18.60;99.90;;;;;;5064891;28;20036;-79
2023/08/15 01:53:34;;;;;;;7.35;5.03;;;18.50;99.90;;;;;;5062362;28;20032;-78
2023/08/15 01:55:59;;;;;;;9.90;5.38;;;18.60;99.90;;;;;;5072379;28;20092;-78
2023/08/15 01:58:25;;;;;;;10.23;5.28;;;18.50;99.90;;;;;;5056033;28;20032;-79
2023/08/15 02:00:50;;;;;;;8.05;5.50;;;18.50;99.90;;;;;;5067046;28;20402;-78
2023/08/15 02:03:16;;;;;;;10.98;6.15;;;18.50;99.90;;;;;;5069361;28;20043;-78
2023/08/15 02:05:41;;;;;;;12.25;6.70;;;18.50;99.90;;;;;;5070955;28;20045;-78
2023/08/15 02:08:07;;;;;;;11.85;5.40;;;18.50;99.90;;;;;;5064141;28;20062;-79
2023/08/15 02:10:32;;;;;;;10.82;6.35;;;18.50;99.90;;;;;;5062409;28;20513;-78
2023/08/15 02:12:58;;;;;;;11.32;6.97;;;18.50;99.90;;;;;;5072846;28;20039;-79
2023/08/15 02:15:23;;;;;;;9.20;6.50;;;18.50;99.90;;;;;;5085487;28;20040;-78
2023/08/15 02:17:49;;;;;;;10.00;6.53;;;18.50;99.90;;;;;;5045754;28;20111;-79
2023/08/15 02:20:14;;;;;;;10.07;6.57;;;18.50;99.90;;;;;;5059370;28;20500;-78
2023/08/15 02:22:40;;;;;;;8.68;6.72;;;18.50;99.90;;;;;;5063357;28;20044;-78
2023/08/15 02:25:06;;;;;;;8.52;6.55;;;18.50;99.90;;;;;;5061780;28;20495;-79
2023/08/15 02:27:31;;;;;;;10.13;6.93;;;18.50;99.90;;;;;;5085209;28;20491;-78
2023/08/15 02:29:57;;;;;;;11.30;6.70;;;18.50;99.90;;;;;;5070156;28;20122;-78
2023/08/15 02:32:23;;;;;;;11.30;6.40;;;18.50;99.90;;;;;;5064298;28;20067;-78
2023/08/15 02:34:49;;;;;;;9.18;7.10;;;18.50;99.90;;;;;;5066537;28;20101;-78
2023/08/15 02:37:15;;;;;;;12.07;7.63;;;18.50;99.90;;;;;;5062048;28;20050;-78
2023/08/15 02:39:41;;;;;;;11.40;7.40;;;18.50;99.90;;;;;;5058687;28;20044;-79
2023/08/15 02:42:07;;;;;;;10.15;7.10;;;18.40;99.90;;;;;;5060836;28;20244;-78
2023/08/15 02:44:33;;;;;;;9.35;6.90;;;18.40;99.90;;;;;;5067924;28;20115;-78
2023/08/15 02:46:58;;;;;;;9.07;7.13;;;18.40;99.90;;;;;;5062671;28;20051;-78
2023/08/15 02:49:24;;;;;;;10.68;6.60;;;18.40;99.90;;;;;;5063601;28;20032;-78
2023/08/15 02:51:49;;;;;;;8.93;6.75;;;18.40;99.90;;;;;;5070316;28;20066;-78
2023/08/15 02:54:15;;;;;;;12.85;8.10;;;18.40;99.90;;;;;;5068937;28;20032;-78
2023/08/15 02:56:40;;;;;;;10.32;7.28;;;18.40;99.90;;;;;;5076281;28;20124;-78
2023/08/15 02:59:06;;;;;;;14.68;8.00;;;18.30;99.90;;;;;;5060044;28;20040;-78
2023/08/15 03:01:32;;;;;;;12.15;8.32;;;18.40;99.90;;;;;;5063551;28;20032;-77
2023/08/15 03:03:58;;;;;;;13.50;7.90;;;18.30;99.90;;;;;;5067203;28;20044;-78
2023/08/15 03:06:23;;;;;;;10.15;7.82;;;18.20;99.90;;;;;;5078591;28;20039;-78
2023/08/15 03:08:49;;;;;;;10.13;7.53;;;18.10;99.90;;;;;;5078807;28;20035;-78
2023/08/15 03:11:15;;;;;;;15.10;8.85;;;18.20;99.90;;;;;;5075727;28;20139;-78
2023/08/15 03:13:40;;;;;;;12.73;7.70;;;18.10;99.90;;;;;;5072496;28;20047;-78
2023/08/15 03:16:06;;;;;;;11.98;7.68;;;18.10;99.90;;;;;;5072379;28;20039;-78
2023/08/15 03:18:31;;;;;;;10.43;7.97;;;18.10;99.90;;;;;;5056435;28;20040;-77
2023/08/15 03:21:01;;;;;;;12.15;8.63;;;18.10;99.90;;;;;;5072712;28;20040;-78
2023/08/15 03:23:27;;;;;;;13.55;8.07;;;18.10;99.90;;;;;;5071397;28;20032;-78
2023/08/15 03:26:01;;;;;;;11.25;8.65;;;18.00;99.90;;;;;;5071256;28;20031;-78
2023/08/15 03:28:27;;;;;;;14.23;8.52;;;18.10;99.90;;;;;;5072377;28;20070;-78
2023/08/15 03:30:53;;;;;;;9.95;8.30;;;18.10;99.90;;;;;;5072568;28;20032;-78
2023/08/15 03:33:19;;;;;;;14.45;8.40;;;18.10;99.90;;;;;;5071975;28;20531;-78
2023/08/15 03:35:46;;;;;;;14.25;9.27;;;18.20;99.90;;;;;;5072271;28;20062;-78
2023/08/15 03:38:16;;;;;;;14.15;8.95;;;18.20;99.90;;;;;;5066028;28;20499;-78
2023/08/15 03:40:43;;;;;;;13.05;8.43;;;18.20;99.90;;;;;;5071652;28;20094;-78
2023/08/15 03:43:10;;;;;;;13.05;8.18;;;18.30;99.90;;;;;;5071796;28;20124;-78
2023/08/15 03:45:36;;;;;;;12.02;8.35;;;18.30;99.90;;;;;;5071941;28;20040;-78
2023/08/15 03:48:01;;;;;;;11.85;8.77;;;18.30;99.90;;;;;;5062405;28;20518;-78
2023/08/15 03:50:27;;;;;;;12.48;9.00;;;18.40;99.90;;;;;;5060881;28;20032;-78
2023/08/15 03:52:52;;;;;;;12.25;8.82;;;18.40;99.90;;;;;;5069696;28;20039;-78
2023/08/15 03:55:18;;;;;;;12.18;9.10;;;18.40;99.90;;;;;;5069117;28;20040;-78
2023/08/15 03:57:43;;;;;;;14.48;10.48;;;18.40;99.90;;;;;;5067345;28;20039;-78
2023/08/15 04:00:10;;;;;;;13.20;9.27;;;18.40;99.90;;;;;;5067907;28;20056;-78
2023/08/15 04:02:36;;;;;;;15.10;9.52;;;18.40;99.90;;;;;;5068957;28;20131;-78
2023/08/15 04:05:03;;;;;;;12.38;9.32;;;18.40;99.90;;;;;;5072194;28;20178;-78
2023/08/15 04:07:28;;;;;;;10.00;8.10;;;18.30;99.90;;;;;;5063999;28;20044;-78
2023/08/15 04:09:54;;;;;;;15.25;9.60;;;18.30;99.90;;;;;;5073681;28;20032;-78
2023/08/15 04:12:19;;;;;;;17.73;9.70;;;18.30;99.90;;;;;;5069923;28;20040;-78
2023/08/15 04:14:45;;;;;;;13.65;9.88;;;18.30;99.90;;;;;;5071331;28;20031;-78
2023/08/15 04:17:10;;;;;;;16.30;9.57;;;18.30;99.90;;;;;;5074310;28;21840;-77
2023/08/15 04:19:36;;;;;;;13.90;9.50;;;18.40;99.90;;;;;;5067969;28;20105;-78
2023/08/15 04:22:01;;;;;;;12.75;9.13;;;18.30;99.90;;;;;;5063340;28;20587;-78
2023/08/15 04:24:28;;;;;;;14.75;11.10;;;18.30;99.90;;;;;;5063919;28;20041;-78
2023/08/15 04:26:53;;;;;;;13.77;10.52;;;18.30;99.90;;;;;;5073372;28;20090;-78
2023/08/15 04:29:19;;;;;;;14.00;10.70;;;18.30;99.90;;;;;;5072367;28;20036;-77
2023/08/15 04:31:45;;;;;;;18.08;10.52;;;18.30;99.90;;;;;;5050281;28;20115;-78
2023/08/15 04:34:10;;;;;;;12.77;9.38;;;18.30;99.90;;;;;;5046700;28;20384;-77
2023/08/15 04:36:36;;;;;;;14.57;9.90;;;18.30;99.90;;;;;;5070280;28;20081;-77
2023/08/15 04:39:02;;;;;;;16.00;10.10;;;18.30;99.90;;;;;;5067694;28;20036;-78
2023/08/15 04:41:28;;;;;;;11.82;8.82;;;18.30;99.90;;;;;;5066847;28;20109;-78
2023/08/15 04:43:53;;;;;;;12.90;10.48;;;18.30;99.90;;;;;;5066342;28;20083;-77
2023/08/15 04:46:19;;;;;;;13.40;10.00;;;18.20;99.90;;;;;;5074818;28;20039;-78
2023/08/15 04:48:44;;;;;;;12.63;9.05;;;18.20;99.90;;;;;;5059207;28;20181;-78
2023/08/15 04:51:11;;;;;;;12.88;9.43;;;18.10;99.90;;;;;;5071392;28;20526;-78
2023/08/15 04:53:37;;;;;;;10.75;8.73;;;18.10;99.90;;;;;;5070463;28;20501;-78
2023/08/15 04:56:02;;;;;;;11.75;9.18;;;18.10;99.90;;;;;;5065102;28;20119;-78
2023/08/15 04:58:28;;;;;;;11.07;9.13;;;18.10;99.90;;;;;;5046578;28;20109;-78
2023/08/15 05:00:53;;;;;;;13.77;9.68;;;18.10;99.90;;;;;;5065554;28;20036;-78
2023/08/15 05:03:19;;;;;;;13.70;9.85;;;18.10;99.90;;;;;;5067679;28;20484;-78
2023/08/15 05:05:45;;;;;;;15.40;9.85;;;18.10;99.90;;;;;;5065405;28;20036;-78
2023/08/15 05:08:12;;;;;;;14.13;9.30;;;18.10;99.90;;;;;;5082569;28;20119;-78
2023/08/15 05:10:37;;;;;;;12.98;8.10;;;18.10;99.90;;;;;;5070059;28;20503;-78
2023/08/15 05:13:03;;;;;;;11.23;8.18;;;18.00;99.90;;;;;;5073625;28;20050;-78
2023/08/15 05:15:29;;;;;;;13.98;8.27;;;18.00;99.90;;;;;;5066010;28;20036;-78
2023/08/15 05:17:54;;;;;;;15.10;9.52;;;18.00;99.90;;;;;;5065460;28;20115;-78
2023/08/15 05:20:20;;;;;;;13.60;9.23;;;18.10;99.90;;;;;;5069188;28;20090;-78
2023/08/15 05:22:45;;;;;;;13.77;9.02;;;18.00;99.90;;;;;;5053333;28;20551;-78
2023/08/15 05:25:11;;;;;;;12.02;8.38;;;18.10;99.90;;;;;;5072430;28;20111;-78
2023/08/15 05:27:36;;;;;;;11.27;9.00;;;18.10;99.90;;;;;;5074328;28;20034;-78
2023/08/15 05:30:02;;;;;;;9.88;7.47;;;18.20;99.90;;;;;;5067552;28;20036;-78
2023/08/15 05:32:28;;;;;;;11.75;8.18;;;18.20;99.90;;;;;;5058659;28;20048;-78
2023/08/15 05:34:54;;;;;;;13.30;7.75;;;18.30;99.90;;;;;;5055519;28;20403;-78
2023/08/15 05:37:19;;;;;;;13.48;8.85;;;18.30;99.90;;;;;;5074614;28;20047;-78
2023/08/15 05:39:45;;;;;;;13.15;8.20;;;18.30;99.90;;;;;;5074744;28;20108;-78
2023/08/15 05:42:17;;;;;;;11.88;8.35;;;18.30;99.90;;;;;;5070682;28;20032;-78
2023/08/15 05:44:43;;;;;;;12.40;8.02;;;18.30;99.90;;;;;;5069320;28;20403;-78
2023/08/15 05:47:08;;;;;;;11.52;7.38;;;18.20;99.90;;;;;;5055078;28;20466;-78
2023/08/15 05:49:34;;;;;;;10.25;6.82;;;18.20;99.90;;;;;;5068427;28;20074;-78
2023/08/15 05:52:01;;;;;;;10.63;7.35;;;18.20;99.90;;;;;;5067764;28;20088;-77
2023/08/15 05:54:27;;;;;;;9.30;6.35;;;18.30;99.90;;;;;;5058183;28;20036;-78
2023/08/15 05:56:52;;;;;;;11.55;7.32;;;18.30;99.90;;;;;;5060795;28;20411;-78
2023/08/15 05:59:18;;;;;;;12.40;7.63;;;18.30;99.90;;;;;;5067131;28;20040;-78
2023/08/15 06:01:45;;;;;;;11.90;7.68;;;18.30;99.90;;;;;;5063724;28;20067;-77
2023/08/15 06:04:10;;;;;;;14.93;6.97;;;18.30;99.90;;;;;;5069569;28;20037;-77
2023/08/15 06:06:36;;;;;;;10.05;7.28;;;18.20;99.90;;;;;;5068463;28;20031;-77
2023/08/15 06:09:02;;;;;;;10.18;7.10;;;18.20;99.90;;;;;;5087554;28;20043;-77
2023/08/15 06:11:27;;;;;;;10.13;6.65;;;18.20;99.90;;;;;;5064205;28;20571;-77
2023/08/15 06:13:53;;;;;;;12.75;7.85;;;18.20;99.90;;;;;;5067685;28;20121;-77
2023/08/15 06:16:18;;;;;;;10.43;6.80;;;18.20;99.90;;;;;;5064530;28;20042;-77
2023/08/15 06:18:44;;;;;;;10.40;7.10;;;18.20;99.90;;;;;;5065322;28;20265;-77
2023/08/15 06:21:09;;;;;;;14.80;7.97;;;18.20;99.90;;;;;;5061515;28;20046;-77
2023/08/15 06:23:35;;;;;;;13.63;7.45;;;18.30;99.90;;;;;;5060648;28;20032;-77
2023/08/15 06:26:01;;;;;;;11.57;7.75;;;18.50;99.90;;;;;;5063065;28;20060;-77
2023/08/15 06:28:26;;;;;;;10.20;6.40;;;18.80;99.90;;;;;;5073639;28;20454;-77
2023/08/15 06:30:52;;;;;;;10.15;6.38;;;18.90;99.90;;;;;;5072253;28;20062;-77
2023/08/15 06:33:17;;;;;;;10.65;6.07;;;18.90;99.90;;;;;;5072206;28;20160;-78
2023/08/15 06:35:43;;;;;;;9.65;6.20;;;18.90;99.90;;;;;;5061681;28;20123;-78
2023/08/15 06:38:08;;;;;;;9.65;6.43;;;18.90;99.90;;;;;;5066102;28;20044;-77
2023/08/15 06:40:34;;;;;;;9.57;6.07;;;18.90;99.90;;;;;;5067686;28;20119;-77
2023/08/15 06:42:59;;;;;;;11.73;6.22;;;19.00;99.90;;;;;;5069383;28;20465;-78
2023/08/15 06:45:25;;;;;;;14.52;6.63;;;19.20;99.90;;;;;;5060996;28;20526;-78
2023/08/15 06:47:50;;;;;;;9.85;5.72;;;19.30;99.90;;;;;;5068695;28;20059;-78
2023/08/15 06:50:17;;;;;;;11.23;5.40;;;19.50;99.90;;;;;;5067064;28;20035;-77
2023/08/15 06:52:43;;;;;;;7.53;4.72;;;19.70;99.90;;;;;;5070147;28;20063;-78
2023/08/15 06:55:08;;;;;;;9.23;4.57;;;19.80;99.90;;;;;;5082692;28;20084;-78
2023/08/15 06:57:34;;;;;;;12.95;4.35;;;20.00;99.90;;;;;;5071725;28;20071;-77
2023/08/15 07:00:00;;;;;;;8.95;4.50;;;20.10;99.90;;;;;;5073103;28;20043;-77
2023/08/15 07:02:26;;;;;;;13.63;4.75;;;20.30;99.90;;;;;;5071642;28;20040;-77
2023/08/15 07:04:52;;;;;;;11.52;4.88;;;20.40;99.90;;;;;;5071889;28;20070;-77
2023/08/15 07:07:17;;;;;;;12.82;4.90;;;20.50;99.90;;;;;;5070979;28;20063;-77
2023/08/15 07:09:45;;;;;;;9.52;4.53;;;20.50;99.90;;;;;;5062694;28;20069;-77
2023/08/15 07:12:11;;;;;;;11.38;4.90;;;20.70;99.90;;;;;;5070859;28;20063;-77
2023/08/15 07:14:36;;;;;;;10.27;4.30;;;20.80;99.90;;;;;;5055470;28;20040;-78
2023/08/15 07:17:02;;;;;;;12.43;4.10;;;20.90;99.90;;;;;;5077253;28;20040;-77
2023/08/15 07:19:28;;;;;;;12.07;4.10;;;21.10;99.90;;;;;;5060082;28;20086;-77
2023/08/15 07:21:53;;;;;;;12.18;4.07;;;21.20;99.90;;;;;;5070494;28;20052;-77
2023/08/15 07:24:19;;;;;;;9.65;3.65;;;21.40;99.90;;;;;;5072720;28;20604;-76
2023/08/15 07:26:45;;;;;;;10.40;3.47;;;21.40;99.90;;;;;;5069662;28;20043;-76
2023/08/15 07:29:12;;;;;;;11.45;3.80;;;21.30;99.90;;;;;;5068690;28;20104;-76
2023/08/15 07:31:37;;;;;;;10.32;3.28;;;21.20;99.90;;;;;;5074758;28;20034;-77
2023/08/15 07:34:03;;;;;;;12.48;3.85;;;21.20;99.90;;;;;;5072534;28;20406;-76
2023/08/15 07:36:29;;;;;;;11.50;3.55;;;21.10;99.90;;;;;;5068748;28;20135;-77
2023/08/15 07:38:55;;;;;;;13.98;3.60;;;21.20;99.90;;;;;;5075715;28;20119;-76
2023/08/15 07:41:21;;;;;;;9.23;3.75;;;21.40;99.90;;;;;;5075647;28;20376;-76
2023/08/15 07:43:47;;;;;;;10.45;3.60;;;21.50;99.90;;;;;;5076776;28;20084;-76
2023/08/15 07:46:13;;;;;;;12.85;3.00;;;21.70;99.90;;;;;;5076087;28;20120;-76
2023/08/15 07:48:38;;;;;;;10.45;3.30;;;21.90;99.90;;;;;;5077390;28;20052;-77
2023/08/15 07:51:04;;;;;;;10.52;2.90;;;22.10;99.90;;;;;;5076234;28;20432;-77
2023/08/15 07:53:30;;;;;;;9.40;3.15;;;22.20;99.90;;;;;;5074660;28;20073;-76
2023/08/15 07:55:55;;;;;;;6.80;3.00;;;22.40;99.90;;;;;;5094234;28;20442;-76
2023/08/15 07:58:21;;;;;;;8.80;2.92;;;22.40;99.90;;;;;;5075265;28;20043;-76
2023/08/15 08:00:47;;;;;;;6.60;2.67;;;22.30;99.90;;;;;;5075102;28;20035;-77
2023/08/15 08:03:12;;;;;;;10.65;2.72;;;22.30;99.90;;;;;;5078233;28;20681;-77
2023/08/15 08:05:38;;;;;;;9.40;2.65;;;22.20;99.90;;;;;;5074560;28;20109;-76
2023/08/15 08:08:04;;;;;;;8.50;2.63;;;21.90;99.90;;;;;;5074268;28;20032;-77
2023/08/15 08:10:30;;;;;;;9.32;2.65;;;21.70;99.90;;;;;;5075940;28;20177;-76
2023/08/15 08:12:59;;;;;;;10.50;2.80;;;21.60;99.90;;;;;;5074079;28;20119;-77
2023/08/15 08:15:25;;;;;;;9.40;2.55;;;21.60;99.90;;;;;;5074629;28;20036;-76
2023/08/15 08:17:51;;;;;;;9.32;2.95;;;21.50;99.90;;;;;;5076868;28;20047;-76
2023/08/15 08:20:17;;;;;;;6.88;2.30;;;21.40;99.90;;;;;;5080060;28;20122;-76
2023/08/15 08:22:43;;;;;;;8.95;2.60;;;21.50;99.90;;;;;;5077095;28;20135;-77
2023/08/15 08:25:16;;;;;;;5.88;2.38;;;21.40;99.90;;;;;;5074569;28;20123;-76
2023/08/15 08:27:45;;;;;;;7.97;2.25;;;21.40;99.90;;;;;;5069399;28;20101;-76
2023/08/15 08:30:12;;;;;;;8.43;2.38;;;21.40;99.90;;;;;;5074519;28;20028;-75
2023/08/15 08:32:38;;;;;;;7.90;2.15;;;21.40;99.90;;;;;;5071168;28;20039;-76
2023/08/15 08:35:05;;;;;;;7.45;2.25;;;21.70;99.90;;;;;;5076014;28;20040;-76
2023/08/15 08:37:31;;;;;;;7.93;2.30;;;21.90;99.90;;;;;;5069389;28;20394;-76
2023/08/15 08:39:57;;;;;;;7.05;1.90;;;22.20;99.90;;;;;;5076545;28;20044;-76
2023/08/15 08:42:23;;;;;;;4.57;1.77;;;22.20;99.90;;;;;;5058805;28;20046;-76
2023/08/15 08:44:50;;;;;;;4.65;1.80;;;22.40;99.90;;;;;;5074180;28;20039;-76
2023/08/15 08:47:18;;;;;;;5.78;1.95;;;22.40;99.90;;;;;;5070813;28;20032;-76
2023/08/15 08:49:44;;;;;;;7.40;1.83;;;22.30;99.90;;;;;;5063863;28;20071;-76
2023/08/15 08:52:10;;;;;;;5.88;1.80;;;22.40;99.90;;;;;;5066874;28;20050;-76
2023/08/15 08:54:36;;;;;;;6.03;2.17;;;22.50;99.90;;;;;;5073712;28;20032;-76
2023/08/15 08:57:04;;;;;;;7.90;2.00;;;22.80;99.90;;;;;;5056458;28;20491;-75
2023/08/15 08:59:30;;;;;;;7.13;2.38;;;22.80;99.90;;;;;;5074337;28;20119;-75
2023/08/15 09:01:55;;;;;;;6.85;1.90;;;22.80;99.90;;;;;;5070323;28;20083;-76
2023/08/15 09:04:22;;;;;;;5.13;1.60;;;22.80;99.90;;;;;;5070412;28;20111;-76
2023/08/15 09:06:47;;;;;;;7.30;1.88;;;22.80;99.90;;;;;;5068925;28;20040;-77
2023/08/15 09:09:13;;;;;;;6.15;2.13;;;22.70;99.90;;;;;;5074022;28;20043;-76
2023/08/15 09:11:39;;;;;;;7.93;2.13;;;22.30;99.90;;;;;;5075900;28;20039;-75
2023/08/15 09:14:05;;;;;;;9.38;2.08;;;22.20;99.90;;;;;;5074159;28;20044;-76
2023/08/15 09:16:32;;;;;;;5.45;1.60;;;22.10;99.90;;;;;;5068097;28;20522;-76
2023/08/15 09:19:02;;;;;;;5.95;1.92;;;22.00;99.90;;;;;;5072761;28;20044;-76
2023/08/15 09:21:28;;;;;;;8.57;1.88;;;21.90;99.90;;;;;;5070373;28;20047;-76
2023/08/15 09:23:59;;;;;;;6.00;1.63;;;22.00;99.90;;;;;;5066554;28;20036;-76
2023/08/15 09:26:25;;;;;;;6.80;1.70;;;21.90;99.90;;;;;;5073689;28;20040;-76
2023/08/15 09:28:50;;;;;;;6.00;1.88;;;22.00;99.90;;;;;;5076069;28;20426;-77
2023/08/15 09:31:18;;;;;;;5.72;1.67;;;22.00;99.90;;;;;;5073045;28;20058;-76
2023/08/15 09:33:44;;;;;;;6.93;2.13;;;22.20;99.90;;;;;;5073054;28;20044;-75
2023/08/15 09:36:10;;;;;;;5.00;1.67;;;22.30;99.90;;;;;;5058782;28;20063;-77
2023/08/15 09:38:39;;;;;;;4.75;1.60;;;22.20;99.90;;;;;;5065621;28;20043;-76
2023/08/15 09:41:05;;;;;;;4.85;1.45;;;22.20;99.90;;;;;;5063149;28;20116;-76
2023/08/15 09:43:32;;;;;;;6.03;1.80;;;22.10;99.90;;;;;;5056017;28;20047;-76
2023/08/15 09:46:01;;;;;;;5.43;1.25;;;22.00;99.90;;;;;;5066476;28;20089;-76
2023/08/15 09:48:30;;;;;;;6.25;1.30;;;21.90;99.90;;;;;;5073657;28;20032;-76
2023/08/15 09:50:56;;;;;;;5.80;1.75;;;22.10;99.90;;;;;;5070743;28;20036;-76
2023/08/15 09:53:23;;;;;;;5.25;1.40;;;22.40;99.90;;;;;;5054493;28;20054;-76
2023/08/15 09:55:49;;;;;;;4.72;1.45;;;22.70;99.90;;;;;;5068761;28;20111;-76
2023/08/15 09:58:16;;;;;;;6.20;1.80;;;22.80;99.90;;;;;;5073909;28;20402;-76
2023/08/15 10:00:43;;;;;;;6.53;2.05;;;22.80;99.90;;;;;;5070103;28;20031;-76
2023/08/15 10:03:29;;;;;;;4.82;1.38;;;22.90;99.90;;;;;;5072852;28;20060;-75
2023/08/15 10:05:57;;;;;;;3.75;1.33;;;22.80;99.90;;;;;;5071225;28;20048;-76
2023/08/15 10:08:23;;;;;;;3.63;1.17;;;22.70;99.90;;;;;;5071870;28;20423;-75
2023/08/15 10:10:50;;;;;;;6.63;1.70;;;22.70;99.90;;;;;;5071487;28;20119;-75
2023/08/15 10:13:21;;;;;;;4.07;1.65;;;22.80;99.90;;;;;;5062670;28;20046;-75
2023/08/15 10:15:47;;;;;;;3.47;1.45;;;23.00;99.90;;;;;;5071378;28;20079;-75
2023/08/15 10:18:13;;;;;;;6.47;1.90;;;23.00;99.90;;;;;;5062654;28;20044;-75
2023/08/15 10:20:39;;;;;;;4.88;1.30;;;23.00;99.90;;;;;;5069419;28;20118;-76
2023/08/15 10:23:10;;;;;;;4.15;1.38;;;23.10;99.90;;;;;;5059384;28;20061;-76
2023/08/15 10:25:38;;;;;;;6.15;1.73;;;23.20;99.90;;;;;;5068715;28;20036;-75
2023/08/15 10:28:10;;;;;;;4.60;1.40;;;23.30;99.90;;;;;;5047041;28;20036;-75
2023/08/15 10:30:47;;;;;;;5.05;1.67;;;23.50;99.90;;;;;;5076419;28;20036;-75
2023/08/15 10:33:16;;;;;;;3.90;1.50;;;23.60;99.90;;;;;;5077827;28;20040;-75
2023/08/15 10:35:55;;;;;;;4.65;1.40;;;23.70;99.90;;;;;;5056479;28;20036;-76
2023/08/15 10:38:25;;;;;;;4.32;1.70;;;23.80;99.90;;;;;;5056950;28;20105;-75
2023/08/15 10:40:53;;;;;;;5.25;1.73;;;23.70;99.90;;;;;;5068399;28;20064;-76
2023/08/15 10:43:24;;;;;;;4.82;1.50;;;23.90;99.90;;;;;;5081924;28;20115;-74
2023/08/15 10:45:52;;;;;;;7.30;1.80;;;24.00;99.90;;;;;;5075892;28;20085;-76
2023/08/15 10:48:40;;;;;;;5.15;1.38;;;24.30;99.90;;;;;;5070700;28;20122;-76
2023/08/15 10:51:22;;;;;;;3.80;1.35;;;24.50;99.90;;;;;;5073231;28;20050;-76
2023/08/15 10:54:02;;;;;;;5.68;1.88;;;24.90;99.90;;;;;;5073594;28;20035;-77
2023/08/15 10:56:35;;;;;;;3.50;1.58;;;25.30;99.90;;;;;;5083636;28;20093;-77
2023/08/15 10:59:04;;;;;;;;;;;25.50;99.90;;;;;;5071402;28;20043;-76
2023/08/15 11:01:31;;;;;;;4.35;1.58;;;25.40;99.90;;;;;;5074791;28;19979;-76
2023/08/15 11:03:57;;;;;;;6.40;1.80;;;25.20;99.90;;;;;;5074768;28;20047;-76
2023/08/15 11:06:23;;;;;;;6.78;1.40;;;25.20;99.90;;;;;;5071108;28;20047;-76
2023/08/15 11:08:51;;;;;;;3.97;1.65;;;25.30;99.90;;;;;;5069587;28;20077;-76
2023/08/15 11:11:17;;;;;;;5.75;1.38;;;25.50;99.90;;;;;;5073389;28;20036;-75
2023/08/15 11:13:45;;;;;;;4.55;1.67;;;25.40;99.90;;;;;;5070253;28;20073;-75
2023/08/15 11:16:15;;;;;;;5.63;1.83;;;25.30;99.90;;;;;;5067139;28;20032;-76
2023/08/15 11:18:42;;;;;;;4.22;1.55;;;25.30;99.90;;;;;;5071452;28;20040;-75
2023/08/15 11:21:09;;;;;;;4.90;1.65;;;25.10;99.90;;;;;;5066107;28;20047;-76
2023/08/15 11:23:35;;;;;;;4.55;1.50;;;25.10;99.90;;;;;;5066989;28;20127;-75
2023/08/15 11:26:06;;;;;;;3.30;1.27;;;25.10;99.90;;;;;;5066375;28;20546;-76
2023/08/15 11:28:33;;;;;;;4.38;1.40;;;25.30;99.90;;;;;;5068408;28;20413;-76
2023/08/15 11:31:00;;;;;;;4.50;1.50;;;25.70;99.90;;;;;;5069321;28;20047;-76
2023/08/15 11:33:30;;;;;;;5.82;1.45;;;25.80;99.90;;;;;;5057726;28;20040;-76
2023/08/15 11:35:58;;;;;;;4.05;1.58;;;25.60;99.90;;;;;;5065418;28;20133;-76
2023/08/15 11:38:23;;;;;;;5.90;1.73;;;25.50;99.90;;;;;;5060365;28;20064;-77
2023/08/15 11:40:49;;;;;;;6.05;1.60;;;25.20;99.90;;;;;;5064711;28;20118;-76
2023/08/15 11:43:15;;;;;;;5.72;1.58;;;25.10;99.90;;;;;;5061016;28;20040;-77
2023/08/15 11:45:43;;;;;;;4.55;1.77;;;25.20;99.90;;;;;;5072128;28;20501;-77
2023/08/15 11:48:09;;;;;;;4.70;1.50;;;25.30;99.90;;;;;;5062802;28;20043;-76
2023/08/15 11:50:35;;;;;;;4.22;1.33;;;25.50;99.90;;;;;;5066441;28;20024;-78
2023/08/15 11:53:07;;;;;;;5.30;1.58;;;25.60;99.90;;;;;;5068877;28;20032;-77
2023/08/15 11:55:36;;;;;;;3.00;1.50;;;25.70;99.90;;;;;;5071976;28;20040;-77
2023/08/15 11:58:02;;;;;;;3.83;1.40;;;25.80;99.90;;;;;;5068864;28;20055;-76
2023/08/15 12:00:28;;;;;;;3.90;1.60;;;25.80;99.90;;;;;;5050388;28;20119;-77
2023/08/15 12:02:55;;;;;;;4.60;1.60;;;26.00;99.90;;;;;;5050034;28;20115;-77
2023/08/15 12:05:21;;;;;;;4.97;1.73;;;26.30;99.90;;;;;;5071168;28;20394;-77
2023/08/15 12:07:48;;;;;;;4.65;1.52;;;26.40;99.90;;;;;;5071691;28;20089;-77
2023/08/15 12:10:15;;;;;;;4.60;1.85;;;26.30;99.90;;;;;;5064891;28;20040;-76
2023/08/15 12:12:45;;;;;;;3.70;1.42;;;26.10;99.90;;;;;;5070585;28;20437;-78
2023/08/15 12:15:13;;;;;;;4.93;1.60;;;26.10;99.90;;;;;;5070898;28;20040;-77
2023/08/15 12:17:39;;;;;;;5.50;1.40;;;26.00;99.90;;;;;;5073020;28;20560;-77
2023/08/15 12:20:07;;;;;;;3.40;1.20;;;26.10;99.90;;;;;;5066585;28;20044;-77
2023/08/15 12:22:33;;;;;;;2.70;1.15;;;26.30;99.90;;;;;;5075727;28;20040;-76
2023/08/15 12:24:59;;;;;;;4.57;1.20;;;26.20;99.90;;;;;;5070429;28;20040;-76
2023/08/15 12:27:25;;;;;;;4.00;1.55;;;26.30;99.90;;;;;;5071148;28;20040;-77
2023/08/15 12:29:51;;;;;;;3.42;1.30;;;26.30;99.90;;;;;;5070001;28;20040;-77
2023/08/15 12:32:17;;;;;;;6.38;1.70;;;26.30;99.90;;;;;;5069057;28;20039;-76
2023/08/15 12:34:42;;;;;;;2.78;1.25;;;26.20;99.90;;;;;;5056855;28;20487;-77
2023/08/15 12:37:08;;;;;;;3.00;1.30;;;26.10;99.90;;;;;;5073164;28;20180;-78
2023/08/15 12:39:34;;;;;;;4.22;1.60;;;25.90;99.90;;;;;;5074536;28;20039;-77
2023/08/15 12:42:00;;;;;;;6.18;1.63;;;25.90;99.90;;;;;;5068757;28;20044;-77